Time;durP1;ratioP1;P1;durP2;ratioP2;P2;SDS_P1;SDS_P2;PMS_P1;PMS_P2;Temp;Humidity;BMP_temperature;BMP_pressure;BME280_temperature;BME280_humidity;BME280_pressure;Samples;Min_cycle;Max_cycle;Signal;HPM_P1;HPM_P2
2023/09/01 00:00:06;;;;;;;1.77;0.90;;;11.20;99.90;;;;;;4961124;28;20493;-61
2023/09/01 00:02:32;;;;;;;2.70;0.70;;;11.20;99.90;;;;;;4971419;28;20042;-61
2023/09/01 00:04:58;;;;;;;2.42;1.30;;;11.20;99.90;;;;;;4971097;28;20509;-61
2023/09/01 00:07:24;;;;;;;1.10;0.60;;;11.20;99.90;;;;;;4971284;28;20084;-61
2023/09/01 00:09:52;;;;;;;1.65;0.50;;;11.30;99.90;;;;;;4988631;28;20069;-61
2023/09/01 00:12:18;;;;;;;1.63;1.05;;;11.30;99.90;;;;;;4988015;28;20061;-61
2023/09/01 00:14:44;;;;;;;2.70;0.70;;;11.30;99.90;;;;;;5006083;28;20475;-61
2023/09/01 00:17:12;;;;;;;1.27;0.57;;;11.30;99.90;;;;;;5073052;28;20390;-61
2023/09/01 00:19:39;;;;;;;1.40;1.00;;;11.30;99.90;;;;;;5049708;28;20401;-61
2023/09/01 00:22:05;;;;;;;1.30;0.57;;;11.30;99.90;;;;;;4971109;28;20112;-61
2023/09/01 00:24:32;;;;;;;1.67;0.70;;;11.30;99.90;;;;;;4950348;28;20059;-61
2023/09/01 00:26:58;;;;;;;2.83;0.88;;;11.30;99.90;;;;;;4947853;28;20046;-61
2023/09/01 00:29:24;;;;;;;1.42;0.77;;;11.30;99.90;;;;;;4948724;29;20046;-61
2023/09/01 00:31:50;;;;;;;1.23;0.50;;;11.30;99.90;;;;;;4949615;28;20122;-61
2023/09/01 00:34:16;;;;;;;1.45;0.73;;;11.30;99.90;;;;;;4947915;28;20545;-61
2023/09/01 00:36:42;;;;;;;2.00;0.73;;;11.30;99.90;;;;;;4948287;28;20039;-61
2023/09/01 00:39:08;;;;;;;1.85;0.82;;;11.30;99.90;;;;;;5047095;28;20507;-61
2023/09/01 00:41:35;;;;;;;1.92;0.80;;;11.30;99.90;;;;;;5047890;28;20051;-61
2023/09/01 00:44:01;;;;;;;0.60;0.47;;;11.30;99.90;;;;;;4949644;28;20050;-61
2023/09/01 00:46:27;;;;;;;2.00;0.75;;;11.30;99.90;;;;;;4949368;29;20177;-61
2023/09/01 00:48:56;;;;;;;1.17;0.90;;;11.30;99.90;;;;;;5057784;28;20043;-61
2023/09/01 00:51:23;;;;;;;1.98;1.00;;;11.30;99.90;;;;;;4967515;28;20133;-61
2023/09/01 00:53:49;;;;;;;1.92;0.85;;;11.30;99.90;;;;;;4968070;28;20062;-61
2023/09/01 00:56:16;;;;;;;1.17;0.60;;;11.30;99.90;;;;;;4958970;28;20055;-61
2023/09/01 00:58:42;;;;;;;1.00;0.68;;;11.30;99.90;;;;;;4947872;29;20628;-61
2023/09/01 01:01:08;;;;;;;1.10;0.73;;;11.30;99.90;;;;;;4947161;29;20118;-61
2023/09/01 01:03:34;;;;;;;1.67;0.70;;;11.30;99.90;;;;;;4948126;29;20043;-61
2023/09/01 01:06:17;;;;;;;0.93;0.68;;;11.30;99.90;;;;;;4947985;29;20056;-61
2023/09/01 01:08:45;;;;;;;2.28;1.17;;;11.30;99.90;;;;;;4928288;29;20182;-61
2023/09/01 01:11:17;;;;;;;1.38;0.82;;;11.30;99.90;;;;;;5027591;28;20715;-61
2023/09/01 01:13:51;;;;;;;1.00;0.68;;;11.30;99.90;;;;;;5012032;28;20044;-61
2023/09/01 01:16:18;;;;;;;1.30;0.63;;;11.30;99.90;;;;;;5047247;28;20082;-61
2023/09/01 01:18:46;;;;;;;2.25;0.93;;;11.30;99.90;;;;;;5048663;28;20509;-61
2023/09/01 01:21:19;;;;;;;2.72;0.93;;;11.30;99.90;;;;;;4948848;28;20050;-61
2023/09/01 01:23:45;;;;;;;1.38;0.50;;;11.30;99.90;;;;;;4970835;28;20049;-61
2023/09/01 01:26:15;;;;;;;1.42;0.80;;;11.30;99.90;;;;;;4987696;28;20191;-61
2023/09/01 01:28:40;;;;;;;1.35;0.65;;;11.30;99.90;;;;;;4969641;28;20049;-61
2023/09/01 01:31:06;;;;;;;1.67;0.85;;;11.30;99.90;;;;;;4987460;28;20046;-61
2023/09/01 01:33:43;;;;;;;1.55;0.88;;;11.30;99.90;;;;;;5051292;28;20030;-61
2023/09/01 01:36:21;;;;;;;1.50;0.77;;;11.40;99.90;;;;;;4987099;28;20049;-61
2023/09/01 01:38:55;;;;;;;1.80;0.70;;;11.40;99.90;;;;;;4987734;28;20042;-61
2023/09/01 01:41:29;;;;;;;1.70;0.88;;;11.50;99.90;;;;;;4987290;28;20428;-61
2023/09/01 01:43:58;;;;;;;1.80;0.85;;;11.50;99.90;;;;;;5053859;28;20051;-61
2023/09/01 01:46:26;;;;;;;2.47;1.25;;;11.50;99.90;;;;;;5054654;28;20045;-61
2023/09/01 01:48:52;;;;;;;1.45;0.73;;;11.60;99.90;;;;;;5063420;28;20042;-61
2023/09/01 01:51:17;;;;;;;3.28;0.98;;;11.60;99.90;;;;;;5006307;28;20057;-61
2023/09/01 01:53:43;;;;;;;2.53;1.17;;;11.60;99.90;;;;;;5006753;28;20063;-61
2023/09/01 01:56:11;;;;;;;1.10;0.70;;;11.60;99.90;;;;;;5067089;28;20046;-61
2023/09/01 01:58:39;;;;;;;1.83;0.80;;;11.70;99.90;;;;;;4986409;28;20096;-61
2023/09/01 02:01:08;;;;;;;2.15;0.98;;;11.70;99.90;;;;;;5054438;28;20042;-61
2023/09/01 02:03:34;;;;;;;0.90;0.60;;;11.70;99.90;;;;;;4986750;28;20038;-61
2023/09/01 02:06:00;;;;;;;0.73;0.50;;;11.70;99.90;;;;;;4987139;28;20543;-61
2023/09/01 02:08:26;;;;;;;1.60;0.80;;;11.70;99.90;;;;;;5054690;28;20042;-61
2023/09/01 02:10:51;;;;;;;1.55;0.77;;;11.70;99.90;;;;;;5054014;28;20411;-61
2023/09/01 02:13:17;;;;;;;2.13;0.63;;;11.60;99.90;;;;;;5054080;28;20505;-61
2023/09/01 02:15:53;;;;;;;1.75;0.82;;;11.70;99.90;;;;;;4972758;28;20039;-61
2023/09/01 02:18:19;;;;;;;0.90;0.60;;;11.60;99.90;;;;;;5033747;28;20047;-61
2023/09/01 02:20:45;;;;;;;1.20;0.63;;;11.60;99.90;;;;;;4982591;28;20038;-61
2023/09/01 02:23:15;;;;;;;1.33;0.73;;;11.60;99.90;;;;;;4989079;28;20057;-61
2023/09/01 02:25:41;;;;;;;2.17;0.90;;;11.60;99.90;;;;;;4988356;28;20126;-61
2023/09/01 02:28:07;;;;;;;1.73;0.77;;;11.60;99.90;;;;;;4972786;28;20121;-61
2023/09/01 02:30:33;;;;;;;1.70;0.82;;;11.60;99.90;;;;;;5026856;28;20042;-61
2023/09/01 02:32:58;;;;;;;0.98;0.43;;;11.50;99.90;;;;;;4989827;28;20087;-61
2023/09/01 02:35:24;;;;;;;0.80;0.63;;;11.60;99.90;;;;;;4990112;28;20478;-61
2023/09/01 02:37:50;;;;;;;1.25;0.88;;;11.60;99.90;;;;;;5057478;28;20081;-61
2023/09/01 02:40:16;;;;;;;1.75;0.93;;;11.60;99.90;;;;;;5056900;28;20046;-61
2023/09/01 02:42:42;;;;;;;1.65;0.93;;;11.60;99.90;;;;;;5057258;28;20068;-61
2023/09/01 02:45:12;;;;;;;4.55;1.02;;;11.60;99.90;;;;;;4990173;28;20121;-61
2023/09/01 02:47:37;;;;;;;;;;;11.60;99.90;;;;;;5057648;28;20089;-61
2023/09/01 02:50:06;;;;;;;0.82;0.60;;;11.60;99.90;;;;;;5008560;28;19961;-61
2023/09/01 02:52:33;;;;;;;3.20;1.17;;;11.60;99.90;;;;;;5008823;28;20048;-61
2023/09/01 02:54:59;;;;;;;1.80;0.75;;;11.70;99.90;;;;;;5060786;28;20034;-61
2023/09/01 02:57:25;;;;;;;2.72;0.93;;;11.60;99.90;;;;;;5059320;28;20402;-62
2023/09/01 02:59:54;;;;;;;1.73;0.77;;;11.60;99.90;;;;;;5055967;28;20065;-61
2023/09/01 03:02:21;;;;;;;3.80;0.73;;;11.70;99.90;;;;;;5057067;28;20080;-61
2023/09/01 03:04:52;;;;;;;1.23;0.60;;;11.60;99.90;;;;;;5057007;28;20038;-61
2023/09/01 03:07:18;;;;;;;2.10;1.20;;;11.60;99.90;;;;;;5056421;28;20038;-61
2023/09/01 03:09:44;;;;;;;2.58;1.23;;;11.60;99.90;;;;;;4989623;28;20178;-61
2023/09/01 03:12:10;;;;;;;2.70;0.90;;;11.60;99.90;;;;;;4973712;28;20050;-61
2023/09/01 03:14:36;;;;;;;1.17;0.85;;;11.50;99.90;;;;;;5052601;28;20092;-61
2023/09/01 03:17:04;;;;;;;1.40;0.70;;;11.60;99.90;;;;;;5037183;28;20043;-61
2023/09/01 03:19:31;;;;;;;1.30;0.63;;;11.60;99.90;;;;;;4975213;28;20038;-61
2023/09/01 03:21:57;;;;;;;2.50;0.98;;;11.60;99.90;;;;;;4987583;28;20050;-61
2023/09/01 03:24:23;;;;;;;3.95;1.52;;;11.70;99.90;;;;;;4987831;28;20054;-61
2023/09/01 03:26:48;;;;;;;1.23;0.88;;;11.70;99.90;;;;;;5012792;28;20043;-62
2023/09/01 03:29:14;;;;;;;1.50;1.02;;;11.70;99.90;;;;;;5065479;28;20122;-61
2023/09/01 03:31:40;;;;;;;2.38;0.63;;;11.70;99.90;;;;;;5073487;28;20050;-61
2023/09/01 03:34:07;;;;;;;1.23;0.65;;;11.70;99.90;;;;;;5056128;28;20040;-61
2023/09/01 03:36:33;;;;;;;1.40;0.85;;;11.70;99.90;;;;;;5056085;28;20363;-61
2023/09/01 03:38:59;;;;;;;1.55;1.27;;;11.70;99.90;;;;;;4989196;28;20103;-61
2023/09/01 03:41:25;;;;;;;4.68;1.10;;;11.70;99.90;;;;;;5055922;28;20121;-61
2023/09/01 03:43:51;;;;;;;1.10;0.77;;;11.80;99.90;;;;;;4988976;28;20122;-61
2023/09/01 03:46:17;;;;;;;1.20;0.80;;;11.80;99.90;;;;;;5056156;28;20444;-61
2023/09/01 03:48:42;;;;;;;1.50;0.80;;;11.80;99.90;;;;;;4988332;28;20057;-61
2023/09/01 03:51:22;;;;;;;2.03;0.88;;;11.80;99.90;;;;;;5056376;28;20042;-61
2023/09/01 03:53:48;;;;;;;4.15;1.38;;;11.80;99.90;;;;;;4990860;28;20042;-61
2023/09/01 03:56:16;;;;;;;2.05;0.88;;;11.80;99.90;;;;;;4988446;28;20057;-61
2023/09/01 03:58:42;;;;;;;4.93;0.95;;;11.80;99.90;;;;;;4971289;28;20530;-61
2023/09/01 04:01:09;;;;;;;4.28;1.13;;;11.80;99.90;;;;;;5055759;28;20078;-61
2023/09/01 04:03:42;;;;;;;2.67;1.10;;;11.80;99.90;;;;;;4988159;28;20061;-61
2023/09/01 04:06:09;;;;;;;3.83;1.10;;;11.80;99.90;;;;;;4969452;28;20043;-61
2023/09/01 04:08:35;;;;;;;1.67;0.65;;;11.80;99.90;;;;;;5052583;28;20494;-62
2023/09/01 04:11:04;;;;;;;3.50;1.08;;;11.80;99.90;;;;;;5052217;28;20038;-61
2023/09/01 04:13:31;;;;;;;2.77;1.23;;;11.80;99.90;;;;;;5036123;28;20046;-61
2023/09/01 04:15:57;;;;;;;1.92;0.90;;;11.80;99.90;;;;;;4969117;28;20634;-61
2023/09/01 04:18:23;;;;;;;1.45;1.00;;;11.90;99.90;;;;;;5034962;28;20050;-61
2023/09/01 04:20:50;;;;;;;3.20;0.75;;;11.90;99.90;;;;;;4984920;28;20046;-61
2023/09/01 04:23:16;;;;;;;7.70;1.27;;;11.90;99.90;;;;;;4987696;28;20094;-61
2023/09/01 04:25:46;;;;;;;2.10;1.23;;;11.90;99.90;;;;;;4988340;28;20096;-62
2023/09/01 04:28:16;;;;;;;3.40;1.23;;;11.90;99.90;;;;;;5055438;28;20053;-61
2023/09/01 04:30:43;;;;;;;1.95;1.00;;;11.90;99.90;;;;;;5071508;28;20047;-62
2023/09/01 04:33:09;;;;;;;1.58;0.95;;;11.90;99.90;;;;;;5090568;28;20071;-61
2023/09/01 04:35:36;;;;;;;2.03;1.35;;;12.00;99.90;;;;;;5072410;28;20051;-61
2023/09/01 04:38:02;;;;;;;2.28;1.20;;;11.90;99.90;;;;;;5071882;28;20790;-61
2023/09/01 04:40:28;;;;;;;3.00;1.42;;;11.90;99.90;;;;;;5055869;28;20428;-61
2023/09/01 04:42:55;;;;;;;2.03;1.17;;;12.00;99.90;;;;;;5072254;28;20122;-61
2023/09/01 04:45:22;;;;;;;1.75;1.17;;;12.00;99.90;;;;;;5034256;28;20038;-61
2023/09/01 04:47:48;;;;;;;2.13;0.88;;;12.00;99.90;;;;;;4988306;28;20038;-61
2023/09/01 04:50:14;;;;;;;1.75;0.90;;;12.00;99.90;;;;;;4988243;28;20050;-61
2023/09/01 04:52:40;;;;;;;6.05;1.02;;;12.00;99.90;;;;;;5027444;28;20047;-61
2023/09/01 04:55:08;;;;;;;5.68;1.17;;;12.00;99.90;;;;;;4987026;28;20080;-61
2023/09/01 04:57:34;;;;;;;1.70;0.90;;;12.00;99.90;;;;;;4987066;28;20038;-61
2023/09/01 05:00:00;;;;;;;2.47;0.95;;;12.00;99.90;;;;;;5020555;28;20517;-61
2023/09/01 05:02:25;;;;;;;2.55;1.10;;;12.00;99.90;;;;;;4988025;28;20046;-61
2023/09/01 05:04:51;;;;;;;2.30;1.05;;;12.00;99.90;;;;;;5061554;28;20115;-61
2023/09/01 05:07:17;;;;;;;2.83;1.15;;;11.90;99.90;;;;;;5006660;28;20428;-61
2023/09/01 05:09:43;;;;;;;2.75;1.00;;;11.90;99.90;;;;;;5058600;28;20042;-61
2023/09/01 05:12:09;;;;;;;1.88;1.02;;;12.00;99.90;;;;;;5075232;28;20552;-61
2023/09/01 05:14:34;;;;;;;4.30;0.70;;;12.00;99.90;;;;;;5006724;28;20073;-61
2023/09/01 05:17:00;;;;;;;1.27;0.70;;;11.90;99.90;;;;;;5059084;28;20194;-61
2023/09/01 05:19:26;;;;;;;1.90;1.02;;;11.90;99.90;;;;;;4987105;28;20129;-61
2023/09/01 05:21:52;;;;;;;1.48;1.00;;;11.90;99.90;;;;;;4987533;28;20125;-61
2023/09/01 05:24:18;;;;;;;2.75;1.45;;;11.90;99.90;;;;;;5054746;28;20548;-61
2023/09/01 05:26:43;;;;;;;1.88;0.93;;;11.90;99.90;;;;;;5054454;28;20046;-61
2023/09/01 05:29:09;;;;;;;4.93;1.45;;;11.90;99.90;;;;;;5060184;28;20077;-61
2023/09/01 05:31:35;;;;;;;3.47;1.38;;;12.00;99.90;;;;;;5054920;28;20036;-61
2023/09/01 05:34:02;;;;;;;3.00;1.35;;;12.00;99.90;;;;;;5071317;28;20059;-61
2023/09/01 05:36:28;;;;;;;2.45;1.08;;;12.00;99.90;;;;;;5055106;28;20461;-61
2023/09/01 05:38:53;;;;;;;2.85;1.20;;;12.00;99.90;;;;;;5071850;28;20039;-61
2023/09/01 05:41:19;;;;;;;2.08;1.17;;;12.00;99.90;;;;;;5045463;28;20482;-61
2023/09/01 05:43:45;;;;;;;1.58;0.90;;;12.10;99.90;;;;;;4987492;28;20077;-61
2023/09/01 05:46:11;;;;;;;3.00;0.82;;;12.10;99.90;;;;;;5054582;28;20042;-61
2023/09/01 05:48:36;;;;;;;2.25;0.70;;;12.20;99.90;;;;;;4986860;28;20042;-61
2023/09/01 05:51:03;;;;;;;1.50;0.90;;;12.20;99.90;;;;;;5055025;28;20105;-61
2023/09/01 05:53:29;;;;;;;2.47;1.40;;;12.30;99.90;;;;;;5054691;28;20198;-61
2023/09/01 05:55:55;;;;;;;1.80;0.75;;;12.40;99.90;;;;;;4986780;28;20520;-62
2023/09/01 05:58:21;;;;;;;2.80;1.05;;;12.40;99.90;;;;;;4989853;28;20504;-61
2023/09/01 06:00:47;;;;;;;2.85;1.05;;;12.50;99.90;;;;;;4975156;28;20046;-62
2023/09/01 06:03:13;;;;;;;1.90;1.13;;;12.60;99.90;;;;;;5037702;28;20753;-61
2023/09/01 06:05:39;;;;;;;3.38;1.63;;;12.70;99.90;;;;;;5002816;28;20037;-61
2023/09/01 06:08:05;;;;;;;2.67;1.50;;;12.70;99.90;;;;;;5078292;28;20131;-61
2023/09/01 06:10:31;;;;;;;2.40;1.05;;;12.80;99.90;;;;;;5077939;28;20052;-62
2023/09/01 06:12:57;;;;;;;1.58;0.60;;;12.90;99.90;;;;;;5010234;28;20393;-61
2023/09/01 06:15:22;;;;;;;3.03;1.30;;;13.00;99.90;;;;;;5075321;28;20050;-61
2023/09/01 06:17:48;;;;;;;2.80;0.80;;;13.20;99.90;;;;;;4990227;28;20044;-61
2023/09/01 06:20:14;;;;;;;2.70;1.45;;;13.40;99.90;;;;;;5057755;28;20072;-61
2023/09/01 06:22:40;;;;;;;2.22;0.90;;;13.60;99.90;;;;;;5057144;28;20054;-61
2023/09/01 06:25:06;;;;;;;2.47;1.17;;;13.80;99.90;;;;;;4990331;28;20057;-61
2023/09/01 06:27:36;;;;;;;2.58;1.50;;;13.90;99.90;;;;;;5058032;28;20046;-61
2023/09/01 06:30:06;;;;;;;2.15;1.35;;;14.00;99.90;;;;;;5032751;28;20403;-61
2023/09/01 06:32:33;;;;;;;3.53;1.60;;;14.10;99.90;;;;;;5057561;28;20050;-61
2023/09/01 06:34:59;;;;;;;5.05;1.50;;;14.10;99.90;;;;;;4989848;28;20125;-61
2023/09/01 06:37:25;;;;;;;5.15;1.52;;;14.20;99.90;;;;;;5056808;28;20078;-61
2023/09/01 06:39:51;;;;;;;4.50;1.13;;;14.20;99.90;;;;;;5057462;28;20103;-62
2023/09/01 06:42:17;;;;;;;2.67;1.23;;;14.30;99.90;;;;;;5057568;28;20042;-61
2023/09/01 06:44:43;;;;;;;3.38;1.40;;;14.50;99.90;;;;;;4989293;28;20081;-61
2023/09/01 06:47:09;;;;;;;3.60;1.50;;;14.60;99.90;;;;;;4990006;28;20038;-62
2023/09/01 06:49:35;;;;;;;4.40;1.98;;;14.60;99.90;;;;;;4990159;28;20035;-61
2023/09/01 06:52:00;;;;;;;3.45;1.52;;;14.70;99.90;;;;;;4989518;28;20046;-61
2023/09/01 06:54:26;;;;;;;4.30;1.58;;;14.70;99.90;;;;;;4989726;28;20129;-62
2023/09/01 06:56:52;;;;;;;2.80;1.60;;;14.80;99.90;;;;;;5043252;28;20115;-61
2023/09/01 06:59:18;;;;;;;2.72;1.10;;;14.90;99.90;;;;;;5042180;28;20046;-62
2023/09/01 07:01:44;;;;;;;4.43;2.53;;;14.90;99.90;;;;;;5057013;28;20050;-62
2023/09/01 07:04:10;;;;;;;3.58;1.50;;;15.00;99.90;;;;;;4989868;28;20037;-62
2023/09/01 07:06:35;;;;;;;4.32;1.92;;;15.00;99.90;;;;;;5056408;28;20107;-62
2023/09/01 07:09:01;;;;;;;5.38;1.80;;;15.10;99.90;;;;;;4989340;28;20065;-62
2023/09/01 07:11:27;;;;;;;3.15;1.75;;;15.10;99.90;;;;;;5056787;28;20042;-61
2023/09/01 07:13:53;;;;;;;4.20;2.00;;;15.10;99.90;;;;;;4989543;28;20494;-61
2023/09/01 07:16:18;;;;;;;4.00;1.90;;;15.10;99.90;;;;;;4989372;28;20511;-61
2023/09/01 07:18:46;;;;;;;6.65;2.05;;;15.20;99.90;;;;;;5056340;28;20050;-62
2023/09/01 07:21:12;;;;;;;5.22;2.28;;;15.20;99.90;;;;;;4989616;28;20440;-61
2023/09/01 07:23:39;;;;;;;3.67;1.58;;;15.20;99.90;;;;;;5000156;28;20051;-61
2023/09/01 07:26:14;;;;;;;3.58;1.70;;;15.30;99.90;;;;;;5056324;28;20101;-61
2023/09/01 07:28:40;;;;;;;5.63;2.25;;;15.40;99.90;;;;;;5073795;28;20047;-62
2023/09/01 07:31:13;;;;;;;2.80;1.95;;;15.40;99.90;;;;;;5048375;28;20153;-62
2023/09/01 07:33:42;;;;;;;3.90;1.83;;;15.50;99.90;;;;;;4988304;28;20031;-61
2023/09/01 07:36:12;;;;;;;2.85;1.80;;;15.50;99.90;;;;;;5056861;28;20061;-61
2023/09/01 07:38:38;;;;;;;4.60;2.25;;;15.60;99.90;;;;;;5056484;28;20046;-62
2023/09/01 07:41:04;;;;;;;5.72;1.95;;;15.60;99.90;;;;;;4988583;28;20046;-61
2023/09/01 07:43:31;;;;;;;3.63;1.92;;;15.70;99.90;;;;;;5056434;28;20042;-61
2023/09/01 07:45:57;;;;;;;3.40;1.73;;;15.80;99.90;;;;;;5056134;28;20050;-61
2023/09/01 07:48:23;;;;;;;3.53;2.00;;;15.80;99.90;;;;;;4988466;28;20092;-61
2023/09/01 07:50:49;;;;;;;5.70;1.73;;;15.90;99.90;;;;;;5053238;28;20039;-61
2023/09/01 07:53:15;;;;;;;7.07;1.92;;;16.00;99.90;;;;;;5040720;28;20081;-61
2023/09/01 07:55:41;;;;;;;4.32;2.05;;;16.10;99.90;;;;;;5036052;28;20047;-61
2023/09/01 07:58:07;;;;;;;4.55;1.73;;;16.20;99.90;;;;;;4969582;28;20039;-61
2023/09/01 08:00:33;;;;;;;2.88;1.23;;;16.30;99.90;;;;;;5051254;28;20046;-61
2023/09/01 08:02:59;;;;;;;3.92;1.35;;;16.40;99.90;;;;;;5056137;28;20401;-61
2023/09/01 08:05:25;;;;;;;3.60;1.63;;;16.50;99.90;;;;;;5070255;28;20042;-62
2023/09/01 08:07:53;;;;;;;2.47;1.35;;;16.60;99.90;;;;;;5007902;28;20121;-61
2023/09/01 08:10:19;;;;;;;7.65;1.67;;;16.80;99.90;;;;;;5076120;28;20103;-62
2023/09/01 08:12:45;;;;;;;6.10;1.77;;;17.00;99.90;;;;;;4996201;28;20026;-62
2023/09/01 08:15:10;;;;;;;10.68;2.28;;;17.10;99.90;;;;;;5055068;28;20518;-62
2023/09/01 08:17:45;;;;;;;3.30;1.63;;;17.20;99.90;;;;;;5055709;28;20131;-62
2023/09/01 08:20:11;;;;;;;4.32;1.92;;;17.30;99.90;;;;;;4988472;28;20030;-62
2023/09/01 08:22:37;;;;;;;6.18;1.67;;;17.40;99.90;;;;;;4987957;28;20053;-62
2023/09/01 08:25:03;;;;;;;6.97;1.90;;;17.50;99.90;;;;;;4988726;28;20065;-62
2023/09/01 08:27:29;;;;;;;4.65;2.45;;;17.60;99.90;;;;;;5039197;28;20155;-62
2023/09/01 08:29:56;;;;;;;4.57;2.70;;;17.60;99.90;;;;;;5054787;28;20497;-63
2023/09/01 08:32:22;;;;;;;4.65;2.22;;;17.50;99.90;;;;;;5055274;28;20509;-63
2023/09/01 08:34:47;;;;;;;4.90;2.33;;;17.60;99.90;;;;;;5055529;28;20042;-63
2023/09/01 08:37:15;;;;;;;5.10;2.05;;;17.60;99.90;;;;;;5054813;28;20050;-63
2023/09/01 08:39:50;;;;;;;14.30;2.67;;;17.60;99.90;;;;;;4988440;28;20627;-62
2023/09/01 08:42:18;;;;;;;4.63;2.00;;;17.60;99.90;;;;;;5054822;28;20048;-63
2023/09/01 08:44:44;;;;;;;10.00;2.80;;;17.70;99.90;;;;;;4987831;28;20122;-63
2023/09/01 08:47:10;;;;;;;6.28;2.70;;;17.60;99.90;;;;;;5055383;28;20129;-62
2023/09/01 08:49:36;;;;;;;6.18;3.30;;;17.70;99.90;;;;;;4989643;28;20049;-63
2023/09/01 08:52:03;;;;;;;6.78;2.85;;;17.80;99.90;;;;;;4988376;28;20068;-63
2023/09/01 08:54:31;;;;;;;6.15;2.65;;;17.90;99.90;;;;;;5055142;28;20050;-62
2023/09/01 08:56:56;;;;;;;5.57;3.40;;;18.10;99.90;;;;;;5054304;28;20088;-62
2023/09/01 08:59:24;;;;;;;4.88;3.05;;;18.30;99.90;;;;;;5054760;28;20073;-63
2023/09/01 09:01:50;;;;;;;7.00;2.95;;;18.50;99.90;;;;;;5054914;28;20045;-64
2023/09/01 09:04:16;;;;;;;5.93;2.78;;;18.70;99.90;;;;;;5054509;28;20413;-62
2023/09/01 09:06:42;;;;;;;8.18;3.30;;;18.90;99.90;;;;;;5038330;28;20042;-63
2023/09/01 09:09:11;;;;;;;4.78;2.78;;;19.00;99.90;;;;;;5055030;28;20100;-63
2023/09/01 09:11:41;;;;;;;6.22;2.92;;;19.20;99.90;;;;;;4985179;28;20577;-63
2023/09/01 09:14:07;;;;;;;7.38;2.65;;;19.30;99.90;;;;;;4968526;28;20449;-64
2023/09/01 09:16:33;;;;;;;6.05;3.20;;;19.40;99.90;;;;;;4985558;28;20042;-64
2023/09/01 09:19:07;;;;;;;9.40;3.05;;;19.40;99.90;;;;;;5054207;28;20465;-63
2023/09/01 09:21:33;;;;;;;7.35;2.90;;;19.30;99.90;;;;;;4987925;28;20050;-63
2023/09/01 09:24:03;;;;;;;6.43;3.03;;;19.40;99.90;;;;;;5054523;28;20065;-63
2023/09/01 09:26:30;;;;;;;7.00;3.10;;;19.40;99.90;;;;;;5053602;28;20060;-64
2023/09/01 09:29:07;;;;;;;4.53;2.92;;;19.30;99.90;;;;;;5054244;28;20081;-63
2023/09/01 09:31:44;;;;;;;5.90;2.97;;;19.30;99.90;;;;;;4986829;28;20054;-63
2023/09/01 09:34:18;;;;;;;15.15;3.45;;;19.30;99.90;;;;;;5058330;28;20081;-64
2023/09/01 09:36:48;;;;;;;9.80;3.03;;;19.30;99.90;;;;;;5058571;28;20121;-63
2023/09/01 09:39:33;;;;;;;9.25;3.08;;;19.30;99.90;;;;;;5058254;28;20137;-63
2023/09/01 09:41:59;;;;;;;9.75;3.72;;;19.20;99.90;;;;;;4990982;28;20046;-63
2023/09/01 09:44:31;;;;;;;5.70;2.92;;;19.20;99.90;;;;;;5040408;28;20030;-63
2023/09/01 09:46:57;;;;;;;7.97;3.63;;;19.20;99.90;;;;;;4972739;28;20049;-64
2023/09/01 09:49:24;;;;;;;6.40;2.83;;;19.30;99.90;;;;;;5034357;28;20559;-64
2023/09/01 09:51:51;;;;;;;8.98;3.03;;;19.30;99.90;;;;;;4991190;28;20521;-64
2023/09/01 09:54:21;;;;;;;6.97;2.60;;;19.30;99.90;;;;;;4990464;28;20058;-63
2023/09/01 09:56:49;;;;;;;13.93;3.88;;;19.20;99.90;;;;;;4990945;28;20099;-63
2023/09/01 09:59:22;;;;;;;6.47;3.17;;;19.20;99.90;;;;;;5057548;28;20486;-63
2023/09/01 10:01:49;;;;;;;9.60;2.95;;;19.10;99.90;;;;;;4990652;28;20129;-63
2023/09/01 10:04:17;;;;;;;5.20;2.60;;;19.00;99.90;;;;;;4990627;28;20096;-63
2023/09/01 10:06:44;;;;;;;7.60;3.00;;;18.90;99.90;;;;;;4990108;28;20046;-63
2023/09/01 10:09:11;;;;;;;12.68;2.90;;;18.90;99.90;;;;;;4990613;28;20397;-63
2023/09/01 10:11:37;;;;;;;7.95;3.17;;;19.00;99.90;;;;;;5057813;28;20054;-63
2023/09/01 10:14:05;;;;;;;9.50;2.97;;;19.00;99.90;;;;;;5057793;28;20038;-63
2023/09/01 10:16:31;;;;;;;9.90;3.33;;;19.00;99.90;;;;;;4986569;28;20094;-63
2023/09/01 10:18:57;;;;;;;8.13;2.90;;;19.00;99.90;;;;;;5074657;28;20079;-64
2023/09/01 10:21:23;;;;;;;5.15;3.15;;;19.00;99.90;;;;;;5074030;28;20105;-64
2023/09/01 10:23:49;;;;;;;5.00;2.22;;;19.00;99.90;;;;;;5076627;28;20054;-63
2023/09/01 10:26:28;;;;;;;6.45;2.72;;;19.00;99.90;;;;;;5078366;28;20041;-62
2023/09/01 10:29:03;;;;;;;5.50;2.55;;;19.00;99.90;;;;;;5009281;28;20049;-64
2023/09/01 10:31:31;;;;;;;4.13;2.50;;;19.10;99.90;;;;;;5060928;28;20038;-62
2023/09/01 10:34:08;;;;;;;7.28;2.55;;;19.20;99.90;;;;;;5077951;28;20497;-63
2023/09/01 10:36:38;;;;;;;8.52;2.72;;;19.30;99.90;;;;;;5060550;28;20092;-63
2023/09/01 10:39:22;;;;;;;6.45;2.67;;;19.40;99.90;;;;;;5062674;28;20050;-63
2023/09/01 10:41:57;;;;;;;5.70;2.53;;;19.90;99.90;;;;;;5057024;28;20050;-63
2023/09/01 10:44:44;;;;;;;6.90;2.55;;;20.40;99.90;;;;;;5056712;28;20039;-64
2023/09/01 10:47:31;;;;;;;9.02;3.42;;;20.60;99.90;;;;;;4996324;28;20099;-64
2023/09/01 10:50:01;;;;;;;4.20;2.40;;;20.50;99.90;;;;;;5035152;28;20039;-63
2023/09/01 10:52:28;;;;;;;7.72;2.60;;;20.60;99.90;;;;;;5040841;28;20054;-63
2023/09/01 10:55:00;;;;;;;6.20;2.72;;;20.80;99.90;;;;;;5057359;28;20053;-64
2023/09/01 10:57:47;;;;;;;4.60;2.45;;;20.90;99.90;;;;;;5056662;28;20053;-63
2023/09/01 11:00:34;;;;;;;5.65;1.70;;;20.90;99.90;;;;;;5056915;28;20042;-64
2023/09/01 11:03:29;;;;;;;10.90;2.13;;;21.00;99.90;;;;;;5039893;28;20062;-63
2023/09/01 11:06:00;;;;;;;5.40;2.15;;;21.20;99.90;;;;;;5040833;28;20049;-64
2023/09/01 11:08:27;;;;;;;6.28;1.92;;;21.20;99.90;;;;;;5042783;28;20034;-63
2023/09/01 11:11:00;;;;;;;6.63;2.78;;;21.30;99.90;;;;;;4987692;28;20061;-63
2023/09/01 11:13:26;;;;;;;4.25;2.50;;;21.50;99.90;;;;;;4989819;28;20088;-63
2023/09/01 11:15:52;;;;;;;4.40;2.50;;;21.70;99.90;;;;;;4988725;28;20493;-63
2023/09/01 11:18:22;;;;;;;5.90;2.50;;;21.60;99.90;;;;;;4988194;28;20108;-63
2023/09/01 11:20:49;;;;;;;8.90;2.47;;;21.50;99.90;;;;;;5056511;28;20054;-63
2023/09/01 11:23:22;;;;;;;2.72;1.60;;;21.30;99.90;;;;;;5070173;28;20509;-64
2023/09/01 11:25:58;;;;;;;6.75;1.85;;;21.20;99.90;;;;;;5076951;28;20085;-63
2023/09/01 11:28:26;;;;;;;4.43;1.50;;;21.20;99.90;;;;;;5009048;28;20470;-63
2023/09/01 11:30:56;;;;;;;3.35;1.58;;;21.30;99.90;;;;;;5076038;28;20045;-63
2023/09/01 11:33:23;;;;;;;4.68;1.95;;;21.50;99.90;;;;;;5008776;28;20077;-64
2023/09/01 11:36:03;;;;;;;4.25;1.15;;;21.90;99.90;;;;;;5076772;28;20049;-64
2023/09/01 11:38:29;;;;;;;4.32;1.70;;;22.30;99.90;;;;;;5076280;28;20038;-64
2023/09/01 11:40:55;;;;;;;2.30;0.93;;;22.40;99.90;;;;;;5076475;28;20508;-63
2023/09/01 11:43:21;;;;;;;3.33;1.17;;;22.40;99.90;;;;;;5008680;28;20042;-63
2023/09/01 11:45:50;;;;;;;5.53;1.13;;;22.20;99.90;;;;;;4993370;28;20034;-64
2023/09/01 11:48:27;;;;;;;4.28;1.05;;;22.10;99.90;;;;;;5073331;28;20028;-64
2023/09/01 11:50:54;;;;;;;1.95;0.60;;;22.10;99.90;;;;;;5073452;28;20079;-64
2023/09/01 11:53:28;;;;;;;2.13;0.90;;;22.10;99.90;;;;;;5072537;28;20564;-64
2023/09/01 11:55:58;;;;;;;2.60;1.23;;;22.00;99.90;;;;;;5090960;28;20119;-64
2023/09/01 11:58:33;;;;;;;3.33;1.42;;;21.80;99.90;;;;;;4995802;28;20046;-64
2023/09/01 12:01:18;;;;;;;4.72;0.98;;;21.70;99.90;;;;;;5055876;28;20050;-64
2023/09/01 12:03:52;;;;;;;4.07;1.00;;;21.60;99.90;;;;;;5055991;28;20042;-64
2023/09/01 12:06:23;;;;;;;4.82;1.42;;;21.50;99.90;;;;;;4988394;28;20428;-64
2023/09/01 12:08:50;;;;;;;3.33;1.55;;;21.50;99.90;;;;;;5056012;28;20509;-63
2023/09/01 12:11:16;;;;;;;4.53;1.27;;;21.50;99.90;;;;;;5056122;28;20589;-63
2023/09/01 12:13:45;;;;;;;4.55;1.15;;;21.50;99.90;;;;;;5055356;28;20046;-63
2023/09/01 12:16:40;;;;;;;3.20;1.40;;;21.50;99.90;;;;;;5052814;28;20042;-64
2023/09/01 12:19:06;;;;;;;3.15;1.00;;;21.60;99.90;;;;;;4993740;28;20046;-63
2023/09/01 12:21:31;;;;;;;4.00;1.95;;;21.50;99.90;;;;;;5055066;28;20042;-64
2023/09/01 12:24:05;;;;;;;4.22;1.20;;;21.40;99.90;;;;;;5075085;28;20061;-63
2023/09/01 12:26:31;;;;;;;3.67;1.50;;;21.30;99.90;;;;;;5054997;28;20565;-64
2023/09/01 12:28:57;;;;;;;1.88;1.02;;;21.10;99.90;;;;;;5038782;28;20118;-63
2023/09/01 12:31:22;;;;;;;2.78;1.35;;;21.00;99.90;;;;;;5054993;28;20082;-64
2023/09/01 12:33:48;;;;;;;1.75;0.98;;;21.00;99.90;;;;;;5054747;28;20042;-63
2023/09/01 12:36:14;;;;;;;3.13;1.25;;;21.00;99.90;;;;;;5055194;28;20050;-63
2023/09/01 12:38:40;;;;;;;3.35;1.40;;;21.30;99.90;;;;;;4988660;28;20544;-64
2023/09/01 12:41:05;;;;;;;2.00;0.88;;;21.40;99.90;;;;;;5038729;28;20050;-63
2023/09/01 12:43:31;;;;;;;8.77;1.33;;;21.40;99.90;;;;;;4987093;28;20121;-64
2023/09/01 12:45:58;;;;;;;2.50;0.80;;;21.50;99.90;;;;;;5025296;28;20055;-65
2023/09/01 12:48:24;;;;;;;2.95;0.68;;;21.60;99.90;;;;;;5085854;28;20048;-64
2023/09/01 12:50:50;;;;;;;3.67;1.10;;;21.70;99.90;;;;;;5054959;28;20034;-64